sensor_id;sensor_type;location;lat;lon;timestamp;pressure;altitude;pressure_sealevel;temperature;humidity
5691;BME280;2870;42.680;23.364;2023-03-25T00:00:48;94853.88;;;10.77;75.05
5691;BME280;2870;42.680;23.364;2023-03-25T00:03:19;94814.94;;;10.41;75.41
5691;BME280;2870;42.680;23.364;2023-03-25T00:05:46;94851.84;;;10.70;75.73
5691;BME280;2870;42.680;23.364;2023-03-25T00:08:13;94852.28;;;10.59;76.14
5691;BME280;2870;42.680;23.364;2023-03-25T00:10:41;94843.28;;;10.60;76.31
5691;BME280;2870;42.680;23.364;2023-03-25T00:13:08;94855.28;;;10.61;76.49
5691;BME280;2870;42.680;23.364;2023-03-25T00:15:40;94864.97;;;10.68;76.36
5691;BME280;2870;42.680;23.364;2023-03-25T00:18:10;94847.00;;;10.71;76.36
5691;BME280;2870;42.680;23.364;2023-03-25T00:20:39;94839.88;;;10.70;76.88
5691;BME280;2870;42.680;23.364;2023-03-25T00:23:10;94837.88;;;10.63;77.40
5691;BME280;2870;42.680;23.364;2023-03-25T00:25:37;94835.50;;;10.51;76.83
5691;BME280;2870;42.680;23.364;2023-03-25T00:28:04;94839.41;;;10.48;77.98
5691;BME280;2870;42.680;23.364;2023-03-25T00:30:31;94838.53;;;10.38;78.31
5691;BME280;2870;42.680;23.364;2023-03-25T00:32:58;94827.31;;;10.38;78.01
5691;BME280;2870;42.680;23.364;2023-03-25T00:35:26;94826.16;;;10.41;77.80
5691;BME280;2870;42.680;23.364;2023-03-25T00:37:54;94828.22;;;10.41;78.53
5691;BME280;2870;42.680;23.364;2023-03-25T00:40:25;94832.91;;;10.38;78.66
5691;BME280;2870;42.680;23.364;2023-03-25T00:42:52;94832.34;;;10.32;78.66
5691;BME280;2870;42.680;23.364;2023-03-25T00:45:19;94832.16;;;10.38;77.92
5691;BME280;2870;42.680;23.364;2023-03-25T00:47:46;94826.13;;;10.49;77.81
5691;BME280;2870;42.680;23.364;2023-03-25T00:50:13;94827.09;;;10.44;77.16
5691;BME280;2870;42.680;23.364;2023-03-25T00:52:40;94824.31;;;10.44;77.19
5691;BME280;2870;42.680;23.364;2023-03-25T00:55:09;94822.00;;;10.57;77.25
5691;BME280;2870;42.680;23.364;2023-03-25T00:57:35;94819.41;;;10.52;76.93
5691;BME280;2870;42.680;23.364;2023-03-25T01:00:03;94822.81;;;10.83;76.13
5691;BME280;2870;42.680;23.364;2023-03-25T01:02:32;94810.41;;;10.61;76.03
5691;BME280;2870;42.680;23.364;2023-03-25T01:04:59;94804.09;;;10.45;76.86
5691;BME280;2870;42.680;23.364;2023-03-25T01:07:26;94806.72;;;10.43;77.06
5691;BME280;2870;42.680;23.364;2023-03-25T01:09:53;94807.31;;;10.34;77.44
5691;BME280;2870;42.680;23.364;2023-03-25T01:12:23;94800.44;;;10.27;77.48
5691;BME280;2870;42.680;23.364;2023-03-25T01:14:50;94804.91;;;10.30;77.31
5691;BME280;2870;42.680;23.364;2023-03-25T01:17:17;94801.97;;;10.05;78.79
5691;BME280;2870;42.680;23.364;2023-03-25T01:19:45;94804.56;;;10.11;78.46
5691;BME280;2870;42.680;23.364;2023-03-25T01:22:12;94798.97;;;10.11;78.43
5691;BME280;2870;42.680;23.364;2023-03-25T01:24:39;94798.75;;;10.17;79.01
5691;BME280;2870;42.680;23.364;2023-03-25T01:27:06;94794.50;;;10.00;79.40
5691;BME280;2870;42.680;23.364;2023-03-25T01:29:34;94796.91;;;10.12;79.43
5691;BME280;2870;42.680;23.364;2023-03-25T01:32:01;94788.91;;;10.00;80.05
5691;BME280;2870;42.680;23.364;2023-03-25T01:34:28;94785.72;;;9.96;79.35
5691;BME280;2870;42.680;23.364;2023-03-25T01:36:57;94777.91;;;9.79;79.93
5691;BME280;2870;42.680;23.364;2023-03-25T01:39:25;94765.78;;;9.77;80.04
5691;BME280;2870;42.680;23.364;2023-03-25T01:41:52;94771.38;;;9.85;80.06
5691;BME280;2870;42.680;23.364;2023-03-25T01:47:24;94771.00;;;9.88;80.36
5691;BME280;2870;42.680;23.364;2023-03-25T01:49:52;94768.38;;;9.90;79.89
5691;BME280;2870;42.680;23.364;2023-03-25T01:52:23;94771.41;;;9.77;80.17
5691;BME280;2870;42.680;23.364;2023-03-25T01:54:52;94768.63;;;9.62;80.94
5691;BME280;2870;42.680;23.364;2023-03-25T01:57:21;94779.44;;;9.65;80.81
5691;BME280;2870;42.680;23.364;2023-03-25T01:59:50;94774.41;;;9.71;81.46
5691;BME280;2870;42.680;23.364;2023-03-25T02:02:19;94765.44;;;9.57;81.70
5691;BME280;2870;42.680;23.364;2023-03-25T02:04:52;94765.09;;;9.53;82.35
5691;BME280;2870;42.680;23.364;2023-03-25T02:07:24;94768.06;;;9.71;82.29
5691;BME280;2870;42.680;23.364;2023-03-25T02:09:56;94762.25;;;9.69;80.97
5691;BME280;2870;42.680;23.364;2023-03-25T02:12:24;94762.47;;;9.55;81.88
5691;BME280;2870;42.680;23.364;2023-03-25T02:14:50;94750.13;;;9.59;79.89
5691;BME280;2870;42.680;23.364;2023-03-25T02:17:21;94753.31;;;9.55;79.49
5691;BME280;2870;42.680;23.364;2023-03-25T02:20:23;94753.50;;;9.65;77.94
5691;BME280;2870;42.680;23.364;2023-03-25T02:23:38;94745.66;;;9.55;79.44
5691;BME280;2870;42.680;23.364;2023-03-25T02:26:40;94752.78;;;9.49;79.67
5691;BME280;2870;42.680;23.364;2023-03-25T02:29:20;94752.03;;;9.41;78.96
5691;BME280;2870;42.680;23.364;2023-03-25T02:32:05;94755.00;;;9.35;79.65
5691;BME280;2870;42.680;23.364;2023-03-25T02:34:50;94758.75;;;9.45;80.07
5691;BME280;2870;42.680;23.364;2023-03-25T02:40:26;94755.00;;;9.35;80.14
5691;BME280;2870;42.680;23.364;2023-03-25T02:43:02;94746.63;;;9.20;79.89
5691;BME280;2870;42.680;23.364;2023-03-25T02:45:35;94749.44;;;9.20;80.64
5691;BME280;2870;42.680;23.364;2023-03-25T02:48:06;94749.03;;;9.39;80.70
5691;BME280;2870;42.680;23.364;2023-03-25T02:50:39;94745.88;;;9.35;81.22
5691;BME280;2870;42.680;23.364;2023-03-25T02:53:09;94750.13;;;9.59;80.13
5691;BME280;2870;42.680;23.364;2023-03-25T02:55:39;94750.16;;;9.36;81.31
5691;BME280;2870;42.680;23.364;2023-03-25T02:58:10;94747.53;;;9.30;81.39
5691;BME280;2870;42.680;23.364;2023-03-25T03:00:39;94742.31;;;9.19;82.15
5691;BME280;2870;42.680;23.364;2023-03-25T03:03:07;94743.63;;;9.18;82.25
5691;BME280;2870;42.680;23.364;2023-03-25T03:05:35;94736.56;;;8.94;83.40
5691;BME280;2870;42.680;23.364;2023-03-25T03:08:19;94729.28;;;8.98;83.29
5691;BME280;2870;42.680;23.364;2023-03-25T03:10:52;94725.00;;;9.05;83.66
5691;BME280;2870;42.680;23.364;2023-03-25T03:13:30;94722.19;;;9.05;84.09
5691;BME280;2870;42.680;23.364;2023-03-25T03:16:05;94727.03;;;9.05;83.80
5691;BME280;2870;42.680;23.364;2023-03-25T03:18:42;94731.88;;;9.12;82.77
5691;BME280;2870;42.680;23.364;2023-03-25T03:21:13;94738.06;;;9.02;82.98
5691;BME280;2870;42.680;23.364;2023-03-25T03:23:50;94739.72;;;9.06;83.92
5691;BME280;2870;42.680;23.364;2023-03-25T03:26:27;94734.69;;;8.89;84.00
5691;BME280;2870;42.680;23.364;2023-03-25T03:29:06;94737.50;;;9.04;84.30
5691;BME280;2870;42.680;23.364;2023-03-25T03:31:39;94743.25;;;9.06;nan
5691;BME280;2870;42.680;23.364;2023-03-25T03:34:10;94742.16;;;8.86;nan
5691;BME280;2870;42.680;23.364;2023-03-25T03:36:43;94734.88;;;8.75;nan
5691;BME280;2870;42.680;23.364;2023-03-25T03:39:15;94736.34;;;8.69;nan
5691;BME280;2870;42.680;23.364;2023-03-25T03:41:47;94739.16;;;8.76;nan
5691;BME280;2870;42.680;23.364;2023-03-25T03:44:19;94731.13;;;8.73;nan
5691;BME280;2870;42.680;23.364;2023-03-25T03:46:50;94746.22;;;8.70;nan
5691;BME280;2870;42.680;23.364;2023-03-25T03:49:22;94747.53;;;8.84;nan
5691;BME280;2870;42.680;23.364;2023-03-25T03:51:54;94728.88;;;8.79;nan
5691;BME280;2870;42.680;23.364;2023-03-25T03:54:24;94740.63;;;8.77;nan
5691;BME280;2870;42.680;23.364;2023-03-25T03:56:55;94747.88;;;8.73;nan
5691;BME280;2870;42.680;23.364;2023-03-25T03:59:32;94729.97;;;8.53;nan
5691;BME280;2870;42.680;23.364;2023-03-25T04:02:05;94732.00;;;8.45;nan
5691;BME280;2870;42.680;23.364;2023-03-25T04:04:33;94736.31;;;8.61;nan
5691;BME280;2870;42.680;23.364;2023-03-25T04:07:07;94749.00;;;8.62;nan
5691;BME280;2870;42.680;23.364;2023-03-25T04:09:43;94746.19;;;8.55;nan
5691;BME280;2870;42.680;23.364;2023-03-25T04:12:24;94746.41;;;8.57;nan
5691;BME280;2870;42.680;23.364;2023-03-25T04:14:52;94741.56;;;8.57;nan
5691;BME280;2870;42.680;23.364;2023-03-25T04:17:19;94738.53;;;8.55;nan
5691;BME280;2870;42.680;23.364;2023-03-25T04:19:46;94744.50;;;8.52;nan
5691;BME280;2870;42.680;23.364;2023-03-25T04:22:15;94743.38;;;8.55;nan
5691;BME280;2870;42.680;23.364;2023-03-25T04:24:43;94737.41;;;8.50;nan
5691;BME280;2870;42.680;23.364;2023-03-25T04:27:09;94749.31;;;8.43;nan
5691;BME280;2870;42.680;23.364;2023-03-25T04:29:39;94745.78;;;8.50;nan
5691;BME280;2870;42.680;23.364;2023-03-25T04:32:10;94729.50;;;8.26;nan
5691;BME280;2870;42.680;23.364;2023-03-25T04:34:37;94747.47;;;8.46;nan
5691;BME280;2870;42.680;23.364;2023-03-25T04:37:04;94741.91;;;8.54;nan
5691;BME280;2870;42.680;23.364;2023-03-25T04:39:31;94747.44;;;8.38;nan
5691;BME280;2870;42.680;23.364;2023-03-25T04:41:58;94752.28;;;8.38;nan
5691;BME280;2870;42.680;23.364;2023-03-25T04:44:27;94751.22;;;8.48;nan
5691;BME280;2870;42.680;23.364;2023-03-25T04:47:00;94744.34;;;8.57;nan
5691;BME280;2870;42.680;23.364;2023-03-25T04:49:27;94751.03;;;8.46;nan
5691;BME280;2870;42.680;23.364;2023-03-25T04:51:54;94746.75;;;8.45;nan
5691;BME280;2870;42.680;23.364;2023-03-25T04:54:22;94750.63;;;8.42;nan
5691;BME280;2870;42.680;23.364;2023-03-25T04:56:50;94747.16;;;8.65;nan
5691;BME280;2870;42.680;23.364;2023-03-25T04:59:18;94758.13;;;8.55;nan
5691;BME280;2870;42.680;23.364;2023-03-25T05:01:46;94768.38;;;8.53;nan
5691;BME280;2870;42.680;23.364;2023-03-25T05:04:15;94751.25;;;8.71;nan
5691;BME280;2870;42.680;23.364;2023-03-25T05:06:44;94757.03;;;8.73;nan
5691;BME280;2870;42.680;23.364;2023-03-25T05:09:13;94755.03;;;9.05;nan
5691;BME280;2870;42.680;23.364;2023-03-25T05:11:41;94755.75;;;9.36;nan
5691;BME280;2870;42.680;23.364;2023-03-25T05:14:09;94750.53;;;9.47;nan
5691;BME280;2870;42.680;23.364;2023-03-25T05:16:36;94749.78;;;9.47;nan
5691;BME280;2870;42.680;23.364;2023-03-25T05:19:03;94746.81;;;9.45;nan
5691;BME280;2870;42.680;23.364;2023-03-25T05:21:32;94752.03;;;9.48;nan
5691;BME280;2870;42.680;23.364;2023-03-25T05:24:00;94755.38;;;9.54;nan
5691;BME280;2870;42.680;23.364;2023-03-25T05:26:27;94758.34;;;9.64;nan
5691;BME280;2870;42.680;23.364;2023-03-25T05:28:59;94760.94;;;9.70;nan
5691;BME280;2870;42.680;23.364;2023-03-25T05:31:27;94766.88;;;9.89;nan
5691;BME280;2870;42.680;23.364;2023-03-25T05:33:54;94760.44;;;10.19;nan
5691;BME280;2870;42.680;23.364;2023-03-25T05:36:21;94759.56;;;10.49;nan
5691;BME280;2870;42.680;23.364;2023-03-25T05:38:51;94759.25;;;10.78;nan
5691;BME280;2870;42.680;23.364;2023-03-25T05:41:20;94764.31;;;10.72;nan
5691;BME280;2870;42.680;23.364;2023-03-25T05:43:47;94763.09;;;10.90;nan
5691;BME280;2870;42.680;23.364;2023-03-25T05:46:15;94761.94;;;10.93;nan
5691;BME280;2870;42.680;23.364;2023-03-25T05:48:43;94762.66;;;11.01;nan
5691;BME280;2870;42.680;23.364;2023-03-25T05:51:12;94766.38;;;11.04;nan
5691;BME280;2870;42.680;23.364;2023-03-25T05:53:40;94767.25;;;11.14;nan
5691;BME280;2870;42.680;23.364;2023-03-25T05:56:10;94767.53;;;11.26;nan
5691;BME280;2870;42.680;23.364;2023-03-25T05:58:37;94763.09;;;11.40;nan
5691;BME280;2870;42.680;23.364;2023-03-25T06:01:04;94764.13;;;11.52;nan
5691;BME280;2870;42.680;23.364;2023-03-25T06:03:33;94764.75;;;11.43;nan
5691;BME280;2870;42.680;23.364;2023-03-25T06:06:00;94756.84;;;11.49;nan
5691;BME280;2870;42.680;23.364;2023-03-25T06:08:29;94766.34;;;11.54;nan
5691;BME280;2870;42.680;23.364;2023-03-25T06:10:57;94762.00;;;11.78;nan
5691;BME280;2870;42.680;23.364;2023-03-25T06:13:26;94767.78;;;11.80;nan
5691;BME280;2870;42.680;23.364;2023-03-25T06:15:53;94767.13;;;11.72;nan
5691;BME280;2870;42.680;23.364;2023-03-25T06:18:22;94756.53;;;11.80;nan
5691;BME280;2870;42.680;23.364;2023-03-25T06:20:50;94759.34;;;11.80;nan
5691;BME280;2870;42.680;23.364;2023-03-25T06:23:19;94758.25;;;11.83;nan
5691;BME280;2870;42.680;23.364;2023-03-25T06:25:47;94761.84;;;11.76;nan
5691;BME280;2870;42.680;23.364;2023-03-25T06:28:14;94759.72;;;11.84;nan
5691;BME280;2870;42.680;23.364;2023-03-25T06:30:44;94770.91;;;11.91;nan
5691;BME280;2870;42.680;23.364;2023-03-25T06:33:11;94752.13;;;12.11;nan
5691;BME280;2870;42.680;23.364;2023-03-25T06:35:38;94762.88;;;12.05;nan
5691;BME280;2870;42.680;23.364;2023-03-25T06:38:06;94770.47;;;12.12;nan
5691;BME280;2870;42.680;23.364;2023-03-25T06:40:34;94773.38;;;12.05;nan
5691;BME280;2870;42.680;23.364;2023-03-25T06:43:02;94769.97;;;12.41;nan
5691;BME280;2870;42.680;23.364;2023-03-25T06:45:29;94772.69;;;12.49;nan
5691;BME280;2870;42.680;23.364;2023-03-25T06:47:57;94774.16;;;12.94;nan
5691;BME280;2870;42.680;23.364;2023-03-25T06:50:24;94775.66;;;12.95;nan
5691;BME280;2870;42.680;23.364;2023-03-25T06:52:51;94776.06;;;13.55;nan
5691;BME280;2870;42.680;23.364;2023-03-25T06:55:18;94786.72;;;14.03;nan
5691;BME280;2870;42.680;23.364;2023-03-25T06:57:44;94786.06;;;13.75;nan
5691;BME280;2870;42.680;23.364;2023-03-25T07:00:12;94785.25;;;14.02;nan
5691;BME280;2870;42.680;23.364;2023-03-25T07:02:39;94796.66;;;14.23;nan
5691;BME280;2870;42.680;23.364;2023-03-25T07:05:07;94787.06;;;14.65;nan
5691;BME280;2870;42.680;23.364;2023-03-25T07:07:35;94791.50;;;15.38;nan
5691;BME280;2870;42.680;23.364;2023-03-25T07:10:02;94787.84;;;15.88;nan
5691;BME280;2870;42.680;23.364;2023-03-25T07:12:28;94790.78;;;16.42;nan
5691;BME280;2870;42.680;23.364;2023-03-25T07:14:56;94788.63;;;16.74;nan
5691;BME280;2870;42.680;23.364;2023-03-25T07:17:23;94787.47;;;16.25;nan
5691;BME280;2870;42.680;23.364;2023-03-25T07:19:50;94777.56;;;16.14;nan
5691;BME280;2870;42.680;23.364;2023-03-25T07:22:19;94778.19;;;16.67;nan
5691;BME280;2870;42.680;23.364;2023-03-25T07:24:45;94775.91;;;17.08;nan
5691;BME280;2870;42.680;23.364;2023-03-25T07:27:13;94768.44;;;18.07;nan
5691;BME280;2870;42.680;23.364;2023-03-25T07:29:40;94787.66;;;18.69;nan
5691;BME280;2870;42.680;23.364;2023-03-25T07:32:07;94795.81;;;19.00;nan
5691;BME280;2870;42.680;23.364;2023-03-25T07:34:34;94785.63;;;18.46;nan
5691;BME280;2870;42.680;23.364;2023-03-25T07:37:02;94775.34;;;18.52;nan
5691;BME280;2870;42.680;23.364;2023-03-25T07:39:30;94775.47;;;18.54;nan
5691;BME280;2870;42.680;23.364;2023-03-25T07:41:57;94771.56;;;18.85;nan
5691;BME280;2870;42.680;23.364;2023-03-25T07:44:24;94775.97;;;18.88;nan
5691;BME280;2870;42.680;23.364;2023-03-25T07:46:51;94770.09;;;19.63;nan
5691;BME280;2870;42.680;23.364;2023-03-25T07:49:18;94770.50;;;19.18;nan
5691;BME280;2870;42.680;23.364;2023-03-25T07:51:46;94770.78;;;19.36;nan
5691;BME280;2870;42.680;23.364;2023-03-25T07:54:12;94773.50;;;20.14;nan
5691;BME280;2870;42.680;23.364;2023-03-25T07:56:41;94765.16;;;19.24;nan
5691;BME280;2870;42.680;23.364;2023-03-25T07:59:07;94761.69;;;19.39;nan
5691;BME280;2870;42.680;23.364;2023-03-25T08:01:34;94768.53;;;19.59;nan
5691;BME280;2870;42.680;23.364;2023-03-25T08:04:01;94759.25;;;20.00;nan
5691;BME280;2870;42.680;23.364;2023-03-25T08:06:28;94765.34;;;20.36;nan
5691;BME280;2870;42.680;23.364;2023-03-25T08:08:55;94757.38;;;21.05;nan
5691;BME280;2870;42.680;23.364;2023-03-25T08:11:22;94754.94;;;20.70;nan
5691;BME280;2870;42.680;23.364;2023-03-25T08:13:50;94755.78;;;21.32;nan
5691;BME280;2870;42.680;23.364;2023-03-25T08:16:17;94740.06;;;19.73;nan
5691;BME280;2870;42.680;23.364;2023-03-25T08:18:44;94741.66;;;20.04;nan
5691;BME280;2870;42.680;23.364;2023-03-25T08:21:17;94704.53;;;20.02;nan
5691;BME280;2870;42.680;23.364;2023-03-25T08:23:49;94743.56;;;21.15;nan
5691;BME280;2870;42.680;23.364;2023-03-25T08:26:16;94735.41;;;22.52;nan
5691;BME280;2870;42.680;23.364;2023-03-25T08:28:44;94738.00;;;22.46;nan
5691;BME280;2870;42.680;23.364;2023-03-25T08:31:13;94726.22;;;21.88;nan
5691;BME280;2870;42.680;23.364;2023-03-25T08:33:39;94728.31;;;21.25;nan
5691;BME280;2870;42.680;23.364;2023-03-25T08:36:10;94736.75;;;21.07;nan
5691;BME280;2870;42.680;23.364;2023-03-25T08:38:39;94739.78;;;21.40;nan
5691;BME280;2870;42.680;23.364;2023-03-25T08:41:06;94720.94;;;21.20;nan
5691;BME280;2870;42.680;23.364;2023-03-25T08:43:33;94721.56;;;21.63;nan
5691;BME280;2870;42.680;23.364;2023-03-25T08:46:00;94716.56;;;20.14;nan
5691;BME280;2870;42.680;23.364;2023-03-25T08:48:28;94707.47;;;20.90;nan
5691;BME280;2870;42.680;23.364;2023-03-25T08:50:56;94713.13;;;21.20;nan
5691;BME280;2870;42.680;23.364;2023-03-25T08:53:22;94710.28;;;21.99;nan
5691;BME280;2870;42.680;23.364;2023-03-25T08:55:50;94721.75;;;22.68;nan
5691;BME280;2870;42.680;23.364;2023-03-25T08:58:18;94709.06;;;21.09;nan
5691;BME280;2870;42.680;23.364;2023-03-25T09:00:46;94714.06;;;21.25;nan
5691;BME280;2870;42.680;23.364;2023-03-25T09:03:13;94707.69;;;20.65;nan
5691;BME280;2870;42.680;23.364;2023-03-25T09:05:42;94693.22;;;21.36;nan
5691;BME280;2870;42.680;23.364;2023-03-25T09:08:09;94687.13;;;21.28;nan
5691;BME280;2870;42.680;23.364;2023-03-25T09:10:36;94688.97;;;21.37;nan
5691;BME280;2870;42.680;23.364;2023-03-25T09:13:03;94682.63;;;22.04;nan
5691;BME280;2870;42.680;23.364;2023-03-25T09:15:30;94687.91;;;22.27;nan
5691;BME280;2870;42.680;23.364;2023-03-25T09:17:57;94687.75;;;22.23;nan
5691;BME280;2870;42.680;23.364;2023-03-25T09:20:24;94681.44;;;21.93;nan
5691;BME280;2870;42.680;23.364;2023-03-25T09:22:52;94672.59;;;22.36;nan
5691;BME280;2870;42.680;23.364;2023-03-25T09:25:19;94667.13;;;22.60;nan
5691;BME280;2870;42.680;23.364;2023-03-25T09:27:46;94665.00;;;22.43;nan
5691;BME280;2870;42.680;23.364;2023-03-25T09:30:13;94672.09;;;23.13;nan
5691;BME280;2870;42.680;23.364;2023-03-25T09:32:40;94670.03;;;24.13;nan
5691;BME280;2870;42.680;23.364;2023-03-25T09:35:09;94661.19;;;23.27;nan
5691;BME280;2870;42.680;23.364;2023-03-25T09:37:35;94669.09;;;22.73;nan
5691;BME280;2870;42.680;23.364;2023-03-25T09:40:05;94658.13;;;23.41;nan
5691;BME280;2870;42.680;23.364;2023-03-25T09:42:38;94656.88;;;23.46;nan
5691;BME280;2870;42.680;23.364;2023-03-25T09:45:19;94653.66;;;23.76;nan
5691;BME280;2870;42.680;23.364;2023-03-25T09:47:54;94621.28;;;23.32;nan
5691;BME280;2870;42.680;23.364;2023-03-25T09:50:23;94653.00;;;23.38;nan
5691;BME280;2870;42.680;23.364;2023-03-25T09:52:54;94647.03;;;22.94;nan
5691;BME280;2870;42.680;23.364;2023-03-25T09:55:27;94643.19;;;22.52;nan
5691;BME280;2870;42.680;23.364;2023-03-25T09:57:59;94642.06;;;22.59;nan
5691;BME280;2870;42.680;23.364;2023-03-25T10:00:27;94636.34;;;22.77;nan
5691;BME280;2870;42.680;23.364;2023-03-25T10:03:06;94633.66;;;21.93;nan
5691;BME280;2870;42.680;23.364;2023-03-25T10:05:46;94626.22;;;22.20;nan
5691;BME280;2870;42.680;23.364;2023-03-25T10:08:20;94629.16;;;22.40;nan
5691;BME280;2870;42.680;23.364;2023-03-25T10:10:58;94627.03;;;22.76;nan
5691;BME280;2870;42.680;23.364;2023-03-25T10:13:34;94627.13;;;22.60;nan
5691;BME280;2870;42.680;23.364;2023-03-25T10:16:13;94613.63;;;23.18;nan
5691;BME280;2870;42.680;23.364;2023-03-25T10:18:52;94615.53;;;22.20;nan
5691;BME280;2870;42.680;23.364;2023-03-25T10:21:24;94615.53;;;22.38;nan
5691;BME280;2870;42.680;23.364;2023-03-25T10:23:59;94605.16;;;22.65;nan
5691;BME280;2870;42.680;23.364;2023-03-25T10:26:42;94602.03;;;23.14;nan
5691;BME280;2870;42.680;23.364;2023-03-25T10:29:12;94595.28;;;23.06;nan
5691;BME280;2870;42.680;23.364;2023-03-25T10:31:50;94592.47;;;24.07;nan
5691;BME280;2870;42.680;23.364;2023-03-25T10:34:19;94596.47;;;24.64;nan
5691;BME280;2870;42.680;23.364;2023-03-25T10:36:51;94590.25;;;23.84;nan
5691;BME280;2870;42.680;23.364;2023-03-25T10:39:21;94589.53;;;23.43;nan
5691;BME280;2870;42.680;23.364;2023-03-25T10:41:55;94582.59;;;23.50;nan
5691;BME280;2870;42.680;23.364;2023-03-25T10:44:23;94579.81;;;24.58;nan
5691;BME280;2870;42.680;23.364;2023-03-25T10:46:56;94579.84;;;24.60;nan
5691;BME280;2870;42.680;23.364;2023-03-25T10:49:26;94576.03;;;24.75;nan
5691;BME280;2870;42.680;23.364;2023-03-25T10:51:54;94571.53;;;24.68;nan
5691;BME280;2870;42.680;23.364;2023-03-25T10:54:26;94562.44;;;23.66;nan
5691;BME280;2870;42.680;23.364;2023-03-25T10:56:57;94558.41;;;23.34;nan
5691;BME280;2870;42.680;23.364;2023-03-25T10:59:30;94562.72;;;23.74;nan
5691;BME280;2870;42.680;23.364;2023-03-25T11:02:02;94558.41;;;23.34;nan
5691;BME280;2870;42.680;23.364;2023-03-25T11:04:37;94556.34;;;23.98;nan
5691;BME280;2870;42.680;23.364;2023-03-25T11:07:14;94545.81;;;24.04;nan
5691;BME280;2870;42.680;23.364;2023-03-25T11:09:43;94540.63;;;24.43;nan
5691;BME280;2870;42.680;23.364;2023-03-25T11:12:17;94539.63;;;24.12;nan
5691;BME280;2870;42.680;23.364;2023-03-25T11:14:53;94520.16;;;23.87;nan
5691;BME280;2870;42.680;23.364;2023-03-25T11:17:21;94528.91;;;23.91;nan
5691;BME280;2870;42.680;23.364;2023-03-25T11:19:52;94526.56;;;24.07;nan
5691;BME280;2870;42.680;23.364;2023-03-25T11:22:22;94520.41;;;24.39;nan
5691;BME280;2870;42.680;23.364;2023-03-25T11:24:58;94524.72;;;22.92;nan
5691;BME280;2870;42.680;23.364;2023-03-25T11:27:28;94515.84;;;23.44;nan
5691;BME280;2870;42.680;23.364;2023-03-25T11:29:59;94515.91;;;23.66;nan
5691;BME280;2870;42.680;23.364;2023-03-25T11:32:32;94512.03;;;24.01;nan
5691;BME280;2870;42.680;23.364;2023-03-25T11:35:00;94506.09;;;24.39;nan
5691;BME280;2870;42.680;23.364;2023-03-25T11:37:29;94498.78;;;24.12;nan
5691;BME280;2870;42.680;23.364;2023-03-25T11:40:03;94492.78;;;23.82;nan
5691;BME280;2870;42.680;23.364;2023-03-25T11:42:34;94457.69;;;23.81;nan
5691;BME280;2870;42.680;23.364;2023-03-25T11:45:05;94485.06;;;24.08;nan
5691;BME280;2870;42.680;23.364;2023-03-25T11:47:34;94486.31;;;24.03;nan
5691;BME280;2870;42.680;23.364;2023-03-25T11:50:03;94480.88;;;23.89;nan
5691;BME280;2870;42.680;23.364;2023-03-25T11:52:35;94474.28;;;23.01;nan
5691;BME280;2870;42.680;23.364;2023-03-25T11:55:05;94475.44;;;22.94;nan
5691;BME280;2870;42.680;23.364;2023-03-25T11:57:38;94469.03;;;23.35;nan
5691;BME280;2870;42.680;23.364;2023-03-25T12:00:21;94469.47;;;23.69;nan
5691;BME280;2870;42.680;23.364;2023-03-25T12:02:58;94467.28;;;22.86;nan
5691;BME280;2870;42.680;23.364;2023-03-25T12:05:25;94458.13;;;22.70;nan
5691;BME280;2870;42.680;23.364;2023-03-25T12:08:00;94418.97;;;22.74;nan
5691;BME280;2870;42.680;23.364;2023-03-25T12:10:39;94456.81;;;23.13;nan
5691;BME280;2870;42.680;23.364;2023-03-25T12:13:16;94446.31;;;22.80;nan
5691;BME280;2870;42.680;23.364;2023-03-25T12:15:54;94434.88;;;22.80;nan
5691;BME280;2870;42.680;23.364;2023-03-25T12:18:48;94448.31;;;22.95;nan
5691;BME280;2870;42.680;23.364;2023-03-25T12:21:27;94449.66;;;22.92;nan
5691;BME280;2870;42.680;23.364;2023-03-25T12:24:08;94448.28;;;22.17;nan
5691;BME280;2870;42.680;23.364;2023-03-25T12:26:41;94448.78;;;22.12;nan
5691;BME280;2870;42.680;23.364;2023-03-25T12:29:21;94455.13;;;22.28;nan
5691;BME280;2870;42.680;23.364;2023-03-25T12:32:01;94455.78;;;22.64;nan
5691;BME280;2870;42.680;23.364;2023-03-25T12:34:38;94450.34;;;22.72;nan
5691;BME280;2870;42.680;23.364;2023-03-25T12:37:20;94441.59;;;22.48;nan
5691;BME280;2870;42.680;23.364;2023-03-25T12:39:59;94443.91;;;22.14;nan
5691;BME280;2870;42.680;23.364;2023-03-25T12:42:37;94448.22;;;22.15;nan
5691;BME280;2870;42.680;23.364;2023-03-25T12:45:25;94442.00;;;22.03;nan
5691;BME280;2870;42.680;23.364;2023-03-25T12:48:01;94444.59;;;22.33;nan
5691;BME280;2870;42.680;23.364;2023-03-25T12:50:50;94446.31;;;22.04;nan
5691;BME280;2870;42.680;23.364;2023-03-25T12:53:35;94444.06;;;22.18;nan
5691;BME280;2870;42.680;23.364;2023-03-25T12:56:14;94443.81;;;22.12;nan
5691;BME280;2870;42.680;23.364;2023-03-25T12:59:01;94437.34;;;22.12;nan
5691;BME280;2870;42.680;23.364;2023-03-25T13:01:37;94439.22;;;22.05;nan
5691;BME280;2870;42.680;23.364;2023-03-25T13:04:20;94434.22;;;22.41;nan
5691;BME280;2870;42.680;23.364;2023-03-25T13:06:57;94434.75;;;21.82;nan
5691;BME280;2870;42.680;23.364;2023-03-25T13:09:30;94443.81;;;22.12;nan
5691;BME280;2870;42.680;23.364;2023-03-25T13:12:02;94444.28;;;21.89;nan
5691;BME280;2870;42.680;23.364;2023-03-25T13:14:35;94442.59;;;21.64;nan
5691;BME280;2870;42.680;23.364;2023-03-25T13:17:11;94439.13;;;21.32;nan
5691;BME280;2870;42.680;23.364;2023-03-25T13:19:41;94434.34;;;21.36;nan
5691;BME280;2870;42.680;23.364;2023-03-25T13:22:16;94447.88;;;21.36;nan
5691;BME280;2870;42.680;23.364;2023-03-25T13:24:47;94441.13;;;21.45;nan
5691;BME280;2870;42.680;23.364;2023-03-25T13:27:16;94443.31;;;21.47;nan
5691;BME280;2870;42.680;23.364;2023-03-25T13:29:47;94445.09;;;21.38;nan
5691;BME280;2870;42.680;23.364;2023-03-25T13:32:21;94444.84;;;21.32;nan
5691;BME280;2870;42.680;23.364;2023-03-25T13:34:51;94445.44;;;21.12;nan
5691;BME280;2870;42.680;23.364;2023-03-25T13:37:23;94450.47;;;21.30;nan
5691;BME280;2870;42.680;23.364;2023-03-25T13:40:02;94445.69;;;21.18;nan
5691;BME280;2870;42.680;23.364;2023-03-25T13:42:43;94451.22;;;21.14;nan
5691;BME280;2870;42.680;23.364;2023-03-25T13:45:16;94462.53;;;21.12;nan
5691;BME280;2870;42.680;23.364;2023-03-25T13:47:48;94454.41;;;20.89;nan
5691;BME280;2870;42.680;23.364;2023-03-25T13:50:23;94451.13;;;20.63;nan
5691;BME280;2870;42.680;23.364;2023-03-25T13:52:55;94460.88;;;20.74;nan
5691;BME280;2870;42.680;23.364;2023-03-25T13:55:25;94467.63;;;20.19;nan